createdAt,value
2022-12-23T00:02:11.109Z,8.75
2022-12-23T00:05:15.701Z,8.59
2022-12-23T00:08:18.932Z,8.63
2022-12-23T00:11:23.102Z,8.64
2022-12-23T00:14:44.809Z,8.55
2022-12-23T00:17:48.877Z,8.73
2022-12-23T00:21:04.989Z,8.86
2022-12-23T00:24:13.046Z,8.99
2022-12-23T00:27:17.042Z,8.95
2022-12-23T00:30:19.799Z,9.07
2022-12-23T00:36:48.058Z,8.72
2022-12-23T00:40:08.056Z,8.68
2022-12-23T00:43:12.025Z,8.70
2022-12-23T00:46:14.795Z,8.52
2022-12-23T00:49:38.561Z,8.48
2022-12-23T00:56:03.171Z,8.45
2022-12-23T00:59:07.415Z,8.22
2022-12-23T01:02:30.625Z,8.14
2022-12-23T01:05:40.414Z,8.39
2022-12-23T01:08:44.407Z,8.54
2022-12-23T01:11:47.164Z,8.57
2022-12-23T01:14:51.147Z,8.66
2022-12-23T01:17:54.435Z,8.66
2022-12-23T01:24:30.365Z,9.16
2022-12-23T01:27:33.091Z,9.41
2022-12-23T01:30:36.945Z,9.69
2022-12-23T01:33:39.691Z,9.86
2022-12-23T01:36:43.804Z,9.91
2022-12-23T01:39:46.593Z,10.06
2022-12-23T01:42:50.669Z,9.71
2022-12-23T01:45:53.393Z,9.65
2022-12-23T01:48:58.368Z,9.70
2022-12-23T01:52:04.306Z,9.69
2022-12-23T01:55:08.253Z,9.43
2022-12-23T01:58:15.688Z,9.40
2022-12-23T02:01:45.988Z,9.36
2022-12-23T02:04:50.724Z,9.23
2022-12-23T02:08:25.898Z,9.18
2022-12-23T02:11:50.320Z,8.99
2022-12-23T02:15:31.953Z,8.77
2022-12-23T02:18:56.169Z,8.90
2022-12-23T02:22:16.347Z,9.22
2022-12-23T02:25:51.118Z,9.04
2022-12-23T02:29:23.355Z,9.27
2022-12-23T02:32:33.369Z,9.27
2022-12-23T02:35:42.843Z,9.20
2022-12-23T02:38:55.120Z,9.37
2022-12-23T02:42:03.348Z,9.59
2022-12-23T02:45:13.757Z,9.71
2022-12-23T02:48:26.113Z,9.69
2022-12-23T02:51:34.143Z,9.82
2022-12-23T02:54:44.361Z,9.78
2022-12-23T02:57:53.748Z,9.49
2022-12-23T03:00:59.084Z,9.79
2022-12-23T03:04:06.570Z,9.49
2022-12-23T03:07:18.939Z,9.23
2022-12-23T03:10:30.155Z,9.24
2022-12-23T03:13:54.855Z,9.11
2022-12-23T03:17:05.670Z,9.10
2022-12-23T03:20:17.820Z,8.82
2022-12-23T03:23:26.882Z,8.81
2022-12-23T03:26:39.346Z,9.07
2022-12-23T03:33:16.393Z,9.23
2022-12-23T03:36:25.822Z,9.35
2022-12-23T03:39:33.940Z,9.22
2022-12-23T03:42:39.915Z,9.02
2022-12-23T03:45:49.472Z,8.80
2022-12-23T03:48:55.442Z,8.83
2022-12-23T03:52:06.109Z,8.93
2022-12-23T03:55:14.557Z,8.78
2022-12-23T03:58:26.027Z,9.07
2022-12-23T04:01:41.821Z,9.21
2022-12-23T04:04:55.296Z,9.15
2022-12-23T04:08:06.964Z,8.92
2022-12-23T04:11:09.840Z,8.95
2022-12-23T04:14:19.350Z,9.14
2022-12-23T04:17:23.526Z,9.28
2022-12-23T04:20:26.917Z,9.55
2022-12-23T04:23:32.266Z,9.56
2022-12-23T04:26:35.012Z,9.74
2022-12-23T04:29:39.777Z,10.11
2022-12-23T04:32:45.279Z,10.04
2022-12-23T04:35:48.215Z,10.17
2022-12-23T04:38:53.508Z,10.39
2022-12-23T04:41:56.231Z,10.26
2022-12-23T04:48:22.269Z,9.55
2022-12-23T04:51:24.997Z,9.38
2022-12-23T04:54:30.500Z,9.25
2022-12-23T04:57:34.525Z,9.85
2022-12-23T05:00:39.750Z,10.22
2022-12-23T05:03:43.778Z,10.21
2022-12-23T05:06:46.509Z,9.90
2022-12-23T05:09:51.487Z,9.63
2022-12-23T05:12:55.097Z,9.55
2022-12-23T05:15:57.907Z,9.74
2022-12-23T05:19:01.584Z,10.33
2022-12-23T05:22:04.287Z,10.09
2022-12-23T05:25:10.025Z,10.19
2022-12-23T05:28:15.137Z,9.89
2022-12-23T05:31:18.719Z,9.96
2022-12-23T05:34:23.739Z,10.20
2022-12-23T05:37:30.359Z,10.17
2022-12-23T05:40:36.044Z,10.55
2022-12-23T05:43:39.556Z,10.75
2022-12-23T05:46:43.365Z,10.92
2022-12-23T05:49:46.905Z,10.43
2022-12-23T05:52:50.750Z,10.04
2022-12-23T05:55:56.830Z,9.79
2022-12-23T05:59:03.772Z,10.01
2022-12-23T06:02:08.696Z,10.47
2022-12-23T06:05:14.005Z,10.84
2022-12-23T06:08:19.874Z,11.16
2022-12-23T06:11:25.557Z,11.25
2022-12-23T06:14:29.733Z,11.42
2022-12-23T06:17:39.015Z,11.47
2022-12-23T06:20:43.090Z,11.09
2022-12-23T06:23:46.216Z,11.06
2022-12-23T06:26:57.453Z,11.08
2022-12-23T06:30:02.223Z,11.24
2022-12-23T06:33:13.078Z,11.17
2022-12-23T06:36:19.978Z,11.20
2022-12-23T06:39:27.044Z,10.74
2022-12-23T06:42:37.955Z,10.92
2022-12-23T06:45:42.607Z,10.95
2022-12-23T06:48:54.989Z,10.85
2022-12-23T06:51:58.674Z,10.75
2022-12-23T06:55:01.430Z,11.14
2022-12-23T06:58:05.663Z,11.08
2022-12-23T07:01:10.231Z,10.92
2022-12-23T07:04:13.171Z,11.09
2022-12-23T07:07:16.782Z,11.11
2022-12-23T07:10:20.390Z,10.97
2022-12-23T07:13:24.477Z,10.62
2022-12-23T07:16:28.260Z,10.44
2022-12-23T07:19:31.052Z,10.25
2022-12-23T07:22:33.748Z,10.30
2022-12-23T07:25:37.374Z,10.22
2022-12-23T07:28:41.409Z,10.04
2022-12-23T07:31:45.138Z,9.84
2022-12-23T07:34:47.854Z,9.54
2022-12-23T07:37:52.894Z,9.63
2022-12-23T07:40:55.612Z,9.97
2022-12-23T07:43:59.747Z,10.26
2022-12-23T07:47:02.478Z,10.38
2022-12-23T07:50:05.707Z,10.08
2022-12-23T07:53:09.361Z,9.93
2022-12-23T07:56:12.931Z,10.04
2022-12-23T07:59:17.189Z,9.90
2022-12-23T08:02:23.104Z,9.91
2022-12-23T08:05:26.200Z,9.97
2022-12-23T08:08:29.898Z,9.80
2022-12-23T08:11:33.439Z,9.64
2022-12-23T08:14:37.465Z,9.75
2022-12-23T08:17:40.189Z,9.97
2022-12-23T08:20:42.912Z,9.78
2022-12-23T08:23:47.903Z,9.61
2022-12-23T08:26:50.603Z,9.51
2022-12-23T08:29:54.902Z,9.39
2022-12-23T08:32:57.647Z,9.25
2022-12-23T08:36:00.392Z,9.31
2022-12-23T08:39:06.401Z,9.24
2022-12-23T08:42:09.100Z,9.38
2022-12-23T08:45:14.298Z,9.40
2022-12-23T08:48:17.127Z,9.29
2022-12-23T08:51:25.352Z,8.88
2022-12-23T08:54:29.786Z,9.16
2022-12-23T08:57:32.573Z,9.30
2022-12-23T09:00:38.030Z,9.38
2022-12-23T09:03:41.642Z,9.23
2022-12-23T09:06:46.227Z,9.00
2022-12-23T09:09:50.014Z,9.03
2022-12-23T09:12:53.159Z,9.13
2022-12-23T09:15:58.257Z,9.09
2022-12-23T09:19:01.075Z,9.24
2022-12-23T09:22:04.648Z,9.12
2022-12-23T09:25:08.253Z,8.89
2022-12-23T09:28:12.803Z,8.96
2022-12-23T09:31:17.796Z,9.05
2022-12-23T09:34:21.771Z,9.25
2022-12-23T09:37:26.370Z,9.12
2022-12-23T09:40:32.640Z,8.89
2022-12-23T09:43:50.449Z,8.84
2022-12-23T09:46:58.427Z,8.94
2022-12-23T09:50:05.362Z,9.21
2022-12-23T09:53:16.293Z,9.14
2022-12-23T09:56:27.877Z,9.11
2022-12-23T09:59:45.862Z,9.30
2022-12-23T10:03:10.490Z,9.41
2022-12-23T10:06:21.010Z,9.40
2022-12-23T10:09:24.436Z,9.49
2022-12-23T10:12:40.072Z,9.55
2022-12-23T10:15:46.986Z,9.59
2022-12-23T10:18:56.552Z,9.57
2022-12-23T10:22:04.542Z,9.57
2022-12-23T10:25:17.852Z,9.48
2022-12-23T10:28:20.932Z,9.46
2022-12-23T10:31:41.471Z,9.38
2022-12-23T10:34:55.126Z,9.28
2022-12-23T10:38:04.513Z,9.28
2022-12-23T10:41:17.628Z,9.31
2022-12-23T10:44:57.879Z,9.28
2022-12-23T10:48:17.451Z,9.29
2022-12-23T10:54:49.303Z,9.37
2022-12-23T10:57:54.738Z,9.32
2022-12-23T11:01:00.481Z,9.13
2022-12-23T11:04:09.641Z,9.02
2022-12-23T11:07:43.291Z,8.82
2022-12-23T11:10:40.957Z,8.84
2022-12-23T11:13:47.198Z,8.83
2022-12-23T11:16:50.856Z,8.86
2022-12-23T11:20:11.000Z,8.80
2022-12-23T11:23:28.864Z,8.84
2022-12-23T11:26:31.963Z,8.79
2022-12-23T11:29:38.585Z,8.83
2022-12-23T11:32:43.811Z,8.79
2022-12-23T11:35:47.856Z,8.93
2022-12-23T11:38:56.270Z,8.88
2022-12-23T11:42:06.917Z,8.76
2022-12-23T11:45:11.285Z,8.77
2022-12-23T11:48:29.361Z,8.79
2022-12-23T11:51:33.383Z,8.72
2022-12-23T11:54:40.744Z,8.77
2022-12-23T11:57:47.489Z,8.77
2022-12-23T12:00:56.380Z,8.74
2022-12-23T12:04:02.992Z,8.79
2022-12-23T12:07:09.178Z,8.77
2022-12-23T12:10:20.696Z,8.71
2022-12-23T12:13:26.999Z,8.82
2022-12-23T12:16:51.313Z,8.84
2022-12-23T12:20:04.737Z,8.92
2022-12-23T12:23:14.717Z,8.96
2022-12-23T12:26:26.878Z,9.06
2022-12-23T12:29:35.736Z,9.04
2022-12-23T12:32:47.775Z,9.17
2022-12-23T12:36:00.243Z,9.10
2022-12-23T12:39:07.722Z,9.24
2022-12-23T12:42:17.835Z,9.26
2022-12-23T12:45:25.094Z,9.29
2022-12-23T12:48:38.585Z,9.19
2022-12-23T12:51:47.758Z,9.16
2022-12-23T12:54:57.230Z,9.22
2022-12-23T12:58:02.599Z,9.11
2022-12-23T13:01:24.676Z,9.17
2022-12-23T13:04:47.820Z,9.13
2022-12-23T13:08:05.983Z,9.20
2022-12-23T13:11:16.973Z,9.16
2022-12-23T13:14:33.983Z,9.14
2022-12-23T13:17:43.513Z,9.09
2022-12-23T13:20:53.607Z,9.02
2022-12-23T13:24:05.428Z,9.00
2022-12-23T13:27:12.927Z,9.02
2022-12-23T13:30:20.388Z,8.93
2022-12-23T13:33:28.246Z,8.92
2022-12-23T13:36:45.320Z,8.97
2022-12-23T13:39:58.128Z,8.99
2022-12-23T13:43:07.282Z,8.96
2022-12-23T13:46:22.614Z,8.76
2022-12-23T13:49:36.646Z,8.82
2022-12-23T13:52:54.549Z,8.76
2022-12-23T13:56:11.420Z,8.71
2022-12-23T13:59:18.215Z,8.70
2022-12-23T14:02:49.963Z,8.71
2022-12-23T14:05:54.486Z,8.72
2022-12-23T14:08:57.270Z,8.74
2022-12-23T14:12:12.914Z,8.78
2022-12-23T14:15:50.172Z,8.75
2022-12-23T14:19:31.432Z,8.80
2022-12-23T14:22:49.195Z,8.78
2022-12-23T14:30:05.257Z,8.63
2022-12-23T14:33:20.859Z,8.63
2022-12-23T14:36:27.132Z,8.64
2022-12-23T14:39:35.521Z,8.64
2022-12-23T14:46:07.514Z,8.65
2022-12-23T14:49:38.432Z,8.67
2022-12-23T14:52:51.905Z,8.64
2022-12-23T14:56:14.617Z,8.64
2022-12-23T14:59:28.693Z,8.64
2022-12-23T15:02:35.095Z,8.61
2022-12-23T15:05:39.125Z,8.59
2022-12-23T15:08:45.928Z,8.56
2022-12-23T15:11:49.181Z,8.50
2022-12-23T15:14:54.151Z,8.53
2022-12-23T15:18:02.872Z,8.55
2022-12-23T15:21:12.331Z,8.52
2022-12-23T15:27:39.938Z,8.47
2022-12-23T15:30:50.813Z,8.43
2022-12-23T15:34:04.743Z,8.32
2022-12-23T15:37:11.992Z,8.23
2022-12-23T15:40:28.113Z,8.22
2022-12-23T15:43:31.245Z,8.29
2022-12-23T15:46:35.235Z,8.15
2022-12-23T15:49:39.519Z,8.04
2022-12-23T15:52:44.119Z,7.96
2022-12-23T15:55:49.817Z,7.96
2022-12-23T15:58:53.102Z,7.95
2022-12-23T16:01:56.938Z,7.95
2022-12-23T16:05:03.797Z,7.94
2022-12-23T16:08:26.775Z,7.98
2022-12-23T16:11:44.647Z,7.96
2022-12-23T16:14:53.561Z,7.94
2022-12-23T16:18:15.727Z,7.97
2022-12-23T16:21:18.482Z,7.96
2022-12-23T16:24:24.920Z,7.96
2022-12-23T16:27:38.485Z,7.94
2022-12-23T16:34:09.610Z,8.02
2022-12-23T16:37:12.496Z,8.01
2022-12-23T16:40:16.645Z,8.01
2022-12-23T16:43:21.587Z,7.97
2022-12-23T16:46:26.011Z,7.92
2022-12-23T16:49:33.931Z,7.90
2022-12-23T16:52:36.997Z,7.92
2022-12-23T16:55:48.272Z,7.93
2022-12-23T16:58:56.747Z,7.94
2022-12-23T17:02:03.471Z,7.87
2022-12-23T17:05:08.989Z,7.87
2022-12-23T17:08:12.016Z,7.88
2022-12-23T17:11:18.021Z,7.90
2022-12-23T17:14:25.532Z,7.80
2022-12-23T17:17:28.288Z,7.83
2022-12-23T17:20:33.111Z,7.89
2022-12-23T17:23:35.865Z,7.87
2022-12-23T17:26:39.965Z,7.78
2022-12-23T17:29:45.632Z,7.81
2022-12-23T17:32:52.210Z,7.84
2022-12-23T17:35:57.034Z,7.84
2022-12-23T17:38:59.845Z,7.86
2022-12-23T17:42:25.619Z,7.86
2022-12-23T17:45:31.752Z,7.86
2022-12-23T17:48:35.748Z,7.83
2022-12-23T17:51:40.483Z,7.85
2022-12-23T17:54:45.053Z,7.87
2022-12-23T17:57:47.853Z,7.78
2022-12-23T18:00:53.807Z,7.80
2022-12-23T18:03:58.050Z,7.75
2022-12-23T18:07:01.989Z,7.81
2022-12-23T18:10:05.111Z,7.78
2022-12-23T18:13:11.107Z,7.77
2022-12-23T18:16:16.493Z,7.67
2022-12-23T18:19:21.327Z,7.62
2022-12-23T18:22:27.743Z,7.58
2022-12-23T18:25:30.534Z,7.54
2022-12-23T18:28:34.538Z,7.58
2022-12-23T18:31:50.035Z,7.67
2022-12-23T18:34:55.383Z,7.66
2022-12-23T18:38:00.270Z,7.67
2022-12-23T18:41:03.097Z,7.65
2022-12-23T18:44:06.321Z,7.67
2022-12-23T18:47:11.740Z,7.69
2022-12-23T18:50:14.453Z,7.71
2022-12-23T18:53:24.358Z,7.73
2022-12-23T18:56:27.779Z,7.72
2022-12-23T18:59:32.761Z,7.72
2022-12-23T19:02:38.168Z,7.76
2022-12-23T19:05:40.977Z,7.81
2022-12-23T19:08:46.071Z,7.72
2022-12-23T19:11:50.207Z,7.71
2022-12-23T19:14:52.955Z,7.72
2022-12-23T19:21:19.502Z,7.64
2022-12-23T19:24:23.686Z,7.68
2022-12-23T19:27:26.525Z,7.57
2022-12-23T19:30:30.692Z,7.62
2022-12-23T19:33:38.588Z,7.65
2022-12-23T19:36:41.406Z,7.71
2022-12-23T19:39:45.938Z,7.69
2022-12-23T19:42:48.740Z,7.65
2022-12-23T19:45:58.613Z,7.68
2022-12-23T19:49:02.721Z,7.63
2022-12-23T19:52:07.021Z,7.61
2022-12-23T19:55:12.427Z,7.65
2022-12-23T19:58:15.099Z,7.65
2022-12-23T20:01:22.563Z,7.65
2022-12-23T20:04:27.895Z,7.62
2022-12-23T20:07:30.727Z,7.61
2022-12-23T20:10:34.709Z,7.53
2022-12-23T20:13:39.417Z,7.53
2022-12-23T20:16:43.748Z,7.62
2022-12-23T20:19:49.065Z,7.63
2022-12-23T20:22:51.983Z,7.59
2022-12-23T20:25:55.925Z,7.58
2022-12-23T20:28:59.381Z,7.60
2022-12-23T20:32:03.678Z,7.65
2022-12-23T20:35:09.956Z,7.57
2022-12-23T20:38:12.626Z,7.54
2022-12-23T20:41:18.916Z,7.59
2022-12-23T20:44:34.634Z,7.57
2022-12-23T20:47:39.927Z,7.46
2022-12-23T20:50:45.266Z,7.52
2022-12-23T20:53:48.061Z,7.52
2022-12-23T20:56:52.152Z,7.56
2022-12-23T20:59:54.851Z,7.48
2022-12-23T21:02:58.925Z,7.48
2022-12-23T21:06:04.448Z,7.53
2022-12-23T21:09:08.921Z,7.47
2022-12-23T21:12:12.851Z,7.43
2022-12-23T21:15:15.844Z,7.48
2022-12-23T21:18:19.848Z,7.50
2022-12-23T21:21:26.447Z,7.51
2022-12-23T21:24:29.406Z,7.58
2022-12-23T21:27:32.164Z,7.58
2022-12-23T21:30:36.188Z,7.57
2022-12-23T21:33:40.386Z,7.43
2022-12-23T21:36:45.965Z,7.43
2022-12-23T21:39:48.805Z,7.50
2022-12-23T21:42:52.643Z,7.46
2022-12-23T21:45:59.840Z,7.59
2022-12-23T21:49:04.025Z,7.79
2022-12-23T21:52:09.228Z,8.04
2022-12-23T21:55:15.608Z,8.02
2022-12-23T21:58:19.438Z,7.87
2022-12-23T22:01:22.382Z,7.87
2022-12-23T22:04:26.262Z,7.81
2022-12-23T22:07:30.384Z,7.78
2022-12-23T22:10:34.187Z,7.77
2022-12-23T22:13:38.620Z,7.82
2022-12-23T22:16:41.434Z,7.80
2022-12-23T22:19:45.435Z,7.66
2022-12-23T22:22:50.967Z,7.77
2022-12-23T22:25:54.638Z,7.76
2022-12-23T22:29:00.256Z,7.82
2022-12-23T22:32:02.947Z,7.76
2022-12-23T22:35:07.490Z,7.60
2022-12-23T22:38:12.736Z,7.49
2022-12-23T22:41:16.015Z,7.53
2022-12-23T22:44:20.335Z,7.61
2022-12-23T22:47:23.467Z,7.50
2022-12-23T22:50:27.369Z,7.57
2022-12-23T22:53:37.830Z,7.38
2022-12-23T22:56:40.999Z,7.32
2022-12-23T22:59:49.917Z,7.23
2022-12-23T23:02:53.736Z,7.32
2022-12-23T23:05:58.270Z,7.34
2022-12-23T23:09:03.809Z,7.40
2022-12-23T23:12:06.858Z,7.47
2022-12-23T23:15:11.681Z,7.32
2022-12-23T23:18:15.760Z,7.48
2022-12-23T23:21:19.050Z,7.36
2022-12-23T23:24:30.916Z,7.38
2022-12-23T23:27:34.308Z,7.43
2022-12-23T23:30:38.807Z,7.37
2022-12-23T23:33:42.721Z,7.33
2022-12-23T23:36:45.525Z,7.17
2022-12-23T23:39:50.739Z,7.35
2022-12-23T23:42:53.445Z,7.24
2022-12-23T23:45:57.375Z,7.25
2022-12-23T23:49:01.312Z,7.28
2022-12-23T23:52:04.106Z,7.22
2022-12-23T23:55:11.294Z,7.22
2022-12-23T23:58:13.983Z,7.26
